Austin Reinauer — WCX8055 — position and weather

sailwx.info

Track history (hours):
 
Tides and Currents Weather Stations Pressure Air Temp Water Temp Dewpoint Dewpoint Depression Visibility Wind Speed Wind Dir Waves Ship Positions

Austin Reinauer

Owner: REINAUER TRANSPORTATION CO, LP, STATEN ISLAND, NY. More information available from US FCC via Universal Licensing System and Coast Guard Vessel Documentation Center.

Last reported at 2016-May-05 11:33 UTC. Time now 2016-May-05 12:28 UTC.
Position N 42°07' W 070°31'.

Length 33 m; draft 6.7 m.

Type: Tanker. MMSI: 366739920.

Date/timePositionNaut miles runAvg speedWind from/ knotsBaromVisibWave heightAir tempDewpointWater temp
2016-May-05 11:33N 42°07' W 070°31'9 8.9
2016-May-05 10:33N 42°14' W 070°37'9 8.6
2016-May-05 09:33N 42°20' W 070°46'7 7.1
2016-May-05 08:33N 42°22' W 070°55'6 6.0
2016-May-05 07:33N 42°23' W 071°03'1 0.0
2016-May-04 11:33N 42°23' W 071°03'2 1.8
2016-May-04 10:31N 42°22' W 071°02'0 0.0
2016-May-04 09:31N 42°22' W 071°02'0 0.1
2016-May-04 08:31N 42°22' W 071°02'0 0.1
2016-May-04 07:31N 42°22' W 071°02'0 0.0
2016-May-04 06:31N 42°22' W 071°02'0 0.0
2016-May-04 05:31N 42°22' W 071°02'0 0.0
2016-May-04 04:31N 42°22' W 071°02'0 0.0
2016-May-04 03:31N 42°22' W 071°02'0 0.0
2016-May-04 02:31N 42°22' W 071°02'0 0.0
2016-May-04 01:31N 42°22' W 071°02'4 4.2
2016-May-04 00:34N 42°20' W 070°57'8 8.2
2016-May-03 23:34N 42°20' W 070°46'1010.0
2016-May-03 22:33N 42°13' W 070°36'59 7.3
2016-May-03 14:29N 41°26' W 071°22'910.2
2016-May-03 13:33N 41°35' W 071°19'10 9.6
2016-May-03 12:33N 41°44' W 071°22'3 1.4
2016-May-03 10:28N 41°47' W 071°22'0 0.0
2016-May-02 20:15N 41°47' W 071°22'3 4.4
2016-May-02 19:33N 41°44' W 071°22'47 7.4
2016-May-02 13:14N 41°14' W 072°10'710.2
2016-May-02 12:33N 41°12' W 072°18'73 8.7
2016-May-02 04:09N 40°48' W 073°50'4 7.4
2016-May-02 03:33N 40°47' W 073°55'5 5.0
2016-May-02 02:34N 40°43' W 073°58'5 4.7
2016-May-02 01:34N 40°39' W 074°02'1 0.7
2016-May-02 00:34N 40°39' W 074°03'2 1.8
2016-May-01 23:33N 40°39' W 074°05'5 5.5
2016-May-01 22:34N 40°38' W 074°12'0 0.0
2016-Apr-30 14:33N 40°38' W 074°12'7 7.0
2016-Apr-30 13:33N 40°40' W 074°03'1 0.9
2016-Apr-30 12:31N 40°40' W 074°02'0 0.0
2016-Apr-30 11:31N 40°40' W 074°02'0 0.0
2016-Apr-30 10:31N 40°40' W 074°02'7 7.1
2016-Apr-30 09:33N 40°39' W 074°11'1 0.9
2016-Apr-30 08:33N 40°38' W 074°12'0 0.0
2016-Apr-30 07:33N 40°38' W 074°12'0 0.0
2016-Apr-30 06:33N 40°38' W 074°12'0 0.0
2016-Apr-30 05:33N 40°38' W 074°12'3 3.1
2016-Apr-30 04:33N 40°39' W 074°08'0 0.1
2016-Apr-30 03:33N 40°39' W 074°08'0 0.2
2016-Apr-30 02:23N 40°38' W 074°08'2 2.6
2016-Apr-30 01:33N 40°39' W 074°05'3 2.5
2016-Apr-30 00:31N 40°40' W 074°02'5 5.2
2016-Apr-29 23:33N 40°44' W 073°58'5410.7
2016-Apr-29 18:30N 41°11' W 072°56'48 1.6
2016-Apr-28 12:31N 40°48' W 073°52'7 6.1
2016-Apr-28 11:19N 40°43' W 073°58'3 4.6
2016-Apr-28 10:33N 40°40' W 074°01'2 1.8
2016-Apr-28 09:33N 40°38' W 074°03'2 2.1
2016-Apr-28 08:33N 40°41' W 074°02'6 5.8
2016-Apr-28 07:34N 40°35' W 074°02'8 8.2
2016-Apr-28 06:32N 40°29' W 073°54'21 9.6
2016-Apr-28 04:19N 40°08' W 073°55'7 9.4
2016-Apr-28 03:33N 40°01' W 073°55'1010.2
2016-Apr-28 02:34N 39°51' W 073°57'10 9.9
2016-Apr-28 01:33N 39°41' W 074°01'  
2016-Apr-25 18:32N 39°09' W 075°14'32 6.2
2016-Apr-25 13:22N 39°05' W 074°33'1010.3
2016-Apr-25 12:23N 39°13' W 074°24'810.2
2016-Apr-25 11:33N 39°20' W 074°17'  
Track history (hours):
 
Tides and Currents Weather Stations Pressure Air Temp Water Temp Dewpoint Dewpoint Depression Visibility Wind Speed Wind Dir Waves Ship Positions

Austin Reinauer

Owner: REINAUER TRANSPORTATION CO, LP, STATEN ISLAND, NY. More information available from US FCC via Universal Licensing System and Coast Guard Vessel Documentation Center.

Last reported at 2016-May-05 11:33 UTC. Time now 2016-May-05 12:28 UTC.
Position N 42°07' W 070°31'.

Length 33 m; draft 6.7 m.

Type: Tanker. MMSI: 366739920.

Date/timePositionNaut miles runAvg speedWind from/ knotsBaromVisibWave heightAir tempDewpointWater temp
2016-May-05 11:33N 42°07' W 070°31'9 8.9
2016-May-05 10:33N 42°14' W 070°37'9 8.6
2016-May-05 09:33N 42°20' W 070°46'7 7.1
2016-May-05 08:33N 42°22' W 070°55'6 6.0
2016-May-05 07:33N 42°23' W 071°03'1 0.0
2016-May-04 11:33N 42°23' W 071°03'2 1.8
2016-May-04 10:31N 42°22' W 071°02'0 0.0
2016-May-04 09:31N 42°22' W 071°02'0 0.1
2016-May-04 08:31N 42°22' W 071°02'0 0.1
2016-May-04 07:31N 42°22' W 071°02'0 0.0
2016-May-04 06:31N 42°22' W 071°02'0 0.0
2016-May-04 05:31N 42°22' W 071°02'0 0.0
2016-May-04 04:31N 42°22' W 071°02'0 0.0
2016-May-04 03:31N 42°22' W 071°02'0 0.0
2016-May-04 02:31N 42°22' W 071°02'0 0.0
2016-May-04 01:31N 42°22' W 071°02'4 4.2
2016-May-04 00:34N 42°20' W 070°57'8 8.2
2016-May-03 23:34N 42°20' W 070°46'1010.0
2016-May-03 22:33N 42°13' W 070°36'59 7.3
2016-May-03 14:29N 41°26' W 071°22'910.2
2016-May-03 13:33N 41°35' W 071°19'10 9.6
2016-May-03 12:33N 41°44' W 071°22'3 1.4
2016-May-03 10:28N 41°47' W 071°22'0 0.0
2016-May-02 20:15N 41°47' W 071°22'3 4.4
2016-May-02 19:33N 41°44' W 071°22'47 7.4
2016-May-02 13:14N 41°14' W 072°10'710.2
2016-May-02 12:33N 41°12' W 072°18'73 8.7
2016-May-02 04:09N 40°48' W 073°50'4 7.4
2016-May-02 03:33N 40°47' W 073°55'5 5.0
2016-May-02 02:34N 40°43' W 073°58'5 4.7
2016-May-02 01:34N 40°39' W 074°02'1 0.7
2016-May-02 00:34N 40°39' W 074°03'2 1.8
2016-May-01 23:33N 40°39' W 074°05'5 5.5
2016-May-01 22:34N 40°38' W 074°12'0 0.0
2016-Apr-30 14:33N 40°38' W 074°12'7 7.0
2016-Apr-30 13:33N 40°40' W 074°03'1 0.9
2016-Apr-30 12:31N 40°40' W 074°02'0 0.0
2016-Apr-30 11:31N 40°40' W 074°02'0 0.0
2016-Apr-30 10:31N 40°40' W 074°02'7 7.1
2016-Apr-30 09:33N 40°39' W 074°11'1 0.9
2016-Apr-30 08:33N 40°38' W 074°12'0 0.0
2016-Apr-30 07:33N 40°38' W 074°12'0 0.0
2016-Apr-30 06:33N 40°38' W 074°12'0 0.0
2016-Apr-30 05:33N 40°38' W 074°12'3 3.1
2016-Apr-30 04:33N 40°39' W 074°08'0 0.1
2016-Apr-30 03:33N 40°39' W 074°08'0 0.2
2016-Apr-30 02:23N 40°38' W 074°08'2 2.6
2016-Apr-30 01:33N 40°39' W 074°05'3 2.5
2016-Apr-30 00:31N 40°40' W 074°02'5 5.2
2016-Apr-29 23:33N 40°44' W 073°58'5410.7
2016-Apr-29 18:30N 41°11' W 072°56'48 1.6
2016-Apr-28 12:31N 40°48' W 073°52'7 6.1
2016-Apr-28 11:19N 40°43' W 073°58'3 4.6
2016-Apr-28 10:33N 40°40' W 074°01'2 1.8
2016-Apr-28 09:33N 40°38' W 074°03'2 2.1
2016-Apr-28 08:33N 40°41' W 074°02'6 5.8
2016-Apr-28 07:34N 40°35' W 074°02'8 8.2
2016-Apr-28 06:32N 40°29' W 073°54'21 9.6
2016-Apr-28 04:19N 40°08' W 073°55'7 9.4
2016-Apr-28 03:33N 40°01' W 073°55'1010.2
2016-Apr-28 02:34N 39°51' W 073°57'10 9.9
2016-Apr-28 01:33N 39°41' W 074°01'  
2016-Apr-25 18:32N 39°09' W 075°14'32 6.2
2016-Apr-25 13:22N 39°05' W 074°33'1010.3
2016-Apr-25 12:23N 39°13' W 074°24'810.2
2016-Apr-25 11:33N 39°20' W 074°17'  

Dump ship's entire track history